KBBB

Benson Municipal Airport

Benson, Minnesota, USA
METAR KBBB 181616Z AUTO 25008KT 10SM CLR 01/M02 A2971 RMK AO2
Observed Flight Rules
Dec-18 @ 16:16 UTC (14 minutes ago) Visual Flight Rules
Wind Visibility Clouds
250° at 8 knots 10 miles
  • Clear skies
Temperatures Readings
Current 1°C / 34°F
Dewpoint -2°C / 28°F
Humidity 81%
Altimeter 29.71" Hg
Pressure 1006 hPa
Elevation 317
METAR KBBB 181616Z AUTO 25008KT 10SM CLR 01/M02 A2971 RMK AO2
Observed Flight Rules
Dec-18 @ 16:16 UTC
(14 minutes ago)
VFR
Wind Visibility
250° at 8 knots 10 miles
Clouds
  • Clear skies
Temperature Dewpoint
1°C / 34°F -2°C / 28°F
Humidity Altimeter Pressure
81% 29.71" Hg 1006 hPa